Lapseki, Turkey
Current Conditions -  °F | °C
As of 8:50 PM on Wednesday 28 Jan 2015 (Local Time) from LTBH Reporting Station
Broken Clouds Broken Clouds  
Wind Chill: 41°   Ceiling: 10000
Heat Index: 45°   Visibility: 6mi
Dew Point: 37°   Wind: 6mph
Humidity: 76%   Direction: 50°NE
Pressure: 29.88"   Gusts: NA
Location:  40.34°N, 26.69°E
Report Text: LTBH 281750Z 05005KT 9999 SCT035 BKN100 07/03 Q1012
Loading
Personal Weather Stations






























Interactive Weather Map New forecast layout! Learn more

10-Day Weather Forecast

Advertisements
Track Severe Weather on mobile